Time;durP1;ratioP1;P1;durP2;ratioP2;P2;SDS_P1;SDS_P2;PMS_P1;PMS_P2;Temp;Humidity;BMP_temperature;BMP_pressure;BME280_temperature;BME280_humidity;BME280_pressure;Samples;Min_cycle;Max_cycle;Signal;HPM_P1;HPM_P2
2023/07/01 00:01:48;;;;;;;4.03;1.10;;;21.20;72.40;;;;;;5115887;28;20032;-78
2023/07/01 00:04:14;;;;;;;2.45;0.80;;;21.20;72.50;;;;;;5115957;28;20387;-77
2023/07/01 00:06:43;;;;;;;4.75;1.10;;;21.20;72.60;;;;;;5114632;28;20060;-77
2023/07/01 00:09:12;;;;;;;4.53;1.08;;;21.20;72.30;;;;;;5116140;28;20027;-78
2023/07/01 00:11:38;;;;;;;3.45;1.40;;;21.20;72.20;;;;;;5116219;28;20039;-78
2023/07/01 00:14:04;;;;;;;6.00;0.98;;;21.20;71.70;;;;;;5116086;28;20066;-78
2023/07/01 00:16:30;;;;;;;3.75;1.00;;;21.10;70.90;;;;;;5116132;28;20055;-78
2023/07/01 00:18:56;;;;;;;3.88;0.90;;;21.10;70.20;;;;;;5115743;28;20081;-78
2023/07/01 00:21:21;;;;;;;3.25;1.02;;;21.10;70.50;;;;;;5115518;28;20039;-78
2023/07/01 00:23:47;;;;;;;3.38;1.10;;;21.10;70.20;;;;;;5097577;28;20032;-78
2023/07/01 00:26:12;;;;;;;5.75;1.25;;;21.00;70.80;;;;;;5115325;28;20032;-78
2023/07/01 00:28:38;;;;;;;4.55;1.00;;;21.00;70.60;;;;;;5115804;28;20027;-78
2023/07/01 00:31:04;;;;;;;6.93;1.15;;;21.00;70.90;;;;;;5115832;28;20085;-78
2023/07/01 00:33:29;;;;;;;3.15;1.02;;;21.00;70.00;;;;;;5115745;28;20439;-78
2023/07/01 00:35:55;;;;;;;3.88;0.90;;;20.90;70.10;;;;;;5115137;28;20035;-78
2023/07/01 00:38:21;;;;;;;7.03;1.08;;;20.90;70.60;;;;;;5114123;28;20043;-78
2023/07/01 00:40:47;;;;;;;6.40;1.30;;;20.90;70.30;;;;;;5114960;28;20059;-78
2023/07/01 00:43:12;;;;;;;3.40;0.90;;;20.90;70.20;;;;;;5114363;28;20471;-79
2023/07/01 00:45:38;;;;;;;4.30;0.80;;;20.90;70.60;;;;;;5115111;28;20352;-78
2023/07/01 00:48:04;;;;;;;2.70;1.00;;;20.90;70.20;;;;;;5115078;28;20108;-79
2023/07/01 00:50:30;;;;;;;3.00;0.95;;;20.90;70.20;;;;;;5114721;28;20032;-79
2023/07/01 00:52:56;;;;;;;2.72;1.15;;;20.90;69.80;;;;;;5115335;28;20024;-78
2023/07/01 00:55:22;;;;;;;4.95;1.20;;;20.90;70.30;;;;;;5115223;28;20036;-78
2023/07/01 00:57:47;;;;;;;6.43;1.98;;;20.90;70.10;;;;;;5096967;28;20356;-78
2023/07/01 01:00:14;;;;;;;5.30;1.05;;;20.80;69.70;;;;;;5113384;28;20118;-78
2023/07/01 01:02:55;;;;;;;6.55;1.10;;;20.80;69.50;;;;;;5113866;28;20092;-78
2023/07/01 01:05:42;;;;;;;3.35;1.35;;;20.80;69.40;;;;;;5115401;28;20040;-79
2023/07/01 01:08:31;;;;;;;4.57;0.82;;;20.80;69.60;;;;;;5113706;28;20082;-79
2023/07/01 01:11:00;;;;;;;3.50;1.00;;;20.80;70.20;;;;;;5114705;28;20114;-78
2023/07/01 01:13:28;;;;;;;5.50;1.25;;;20.70;69.20;;;;;;5115059;28;20080;-78
2023/07/01 01:15:56;;;;;;;9.18;1.30;;;20.60;69.60;;;;;;5113280;28;20417;-78
2023/07/01 01:18:24;;;;;;;3.17;1.10;;;20.60;70.40;;;;;;5114851;28;20051;-79
2023/07/01 01:20:51;;;;;;;4.80;1.00;;;20.60;71.40;;;;;;5114278;28;20373;-78
2023/07/01 01:23:28;;;;;;;6.72;1.30;;;20.60;71.70;;;;;;5113500;28;20027;-78
2023/07/01 01:26:17;;;;;;;3.22;0.90;;;20.60;71.80;;;;;;5113375;28;20038;-79
2023/07/01 01:28:43;;;;;;;3.78;1.10;;;20.60;71.80;;;;;;5114676;28;20031;-78
2023/07/01 01:31:11;;;;;;;6.53;1.00;;;20.60;71.50;;;;;;5113164;28;20043;-79
2023/07/01 01:33:40;;;;;;;4.88;1.25;;;20.60;70.90;;;;;;5114555;28;20090;-79
2023/07/01 01:36:26;;;;;;;6.00;1.05;;;20.60;71.60;;;;;;5114526;27;20031;-78
2023/07/01 01:38:53;;;;;;;6.38;1.00;;;20.60;71.90;;;;;;5112506;28;20032;-79
2023/07/01 01:41:30;;;;;;;6.47;1.20;;;20.60;71.50;;;;;;5113545;28;20135;-78
2023/07/01 01:44:03;;;;;;;5.22;1.23;;;20.60;72.00;;;;;;5114452;28;20034;-78
2023/07/01 01:46:31;;;;;;;4.55;1.10;;;20.50;72.10;;;;;;5114216;28;20024;-79
2023/07/01 01:49:03;;;;;;;6.18;1.02;;;20.50;71.70;;;;;;5113990;28;20429;-78
2023/07/01 01:51:31;;;;;;;5.70;0.90;;;20.50;72.00;;;;;;5113512;28;20033;-78
2023/07/01 01:53:57;;;;;;;4.80;0.98;;;20.50;71.70;;;;;;5114189;28;20062;-78
2023/07/01 01:56:24;;;;;;;5.50;1.05;;;20.50;71.90;;;;;;5113941;28;20035;-78
2023/07/01 01:58:50;;;;;;;3.53;1.13;;;20.50;71.90;;;;;;5114415;28;20027;-80
2023/07/01 02:01:16;;;;;;;4.13;0.93;;;20.50;72.00;;;;;;5113712;28;20042;-78
2023/07/01 02:03:44;;;;;;;2.83;0.82;;;20.50;72.30;;;;;;5113891;28;20422;-79
2023/07/01 02:06:10;;;;;;;3.65;1.10;;;20.50;72.60;;;;;;5114307;28;20448;-78
2023/07/01 02:08:36;;;;;;;4.85;1.00;;;20.50;73.00;;;;;;5113602;28;20031;-78
2023/07/01 02:11:01;;;;;;;5.88;1.23;;;20.40;73.30;;;;;;5114112;28;20475;-78
2023/07/01 02:13:27;;;;;;;7.82;1.50;;;20.40;73.50;;;;;;5113511;28;20027;-78
2023/07/01 02:15:53;;;;;;;8.75;1.80;;;20.30;74.00;;;;;;5113808;28;20111;-78
2023/07/01 02:18:18;;;;;;;6.60;1.55;;;20.30;74.60;;;;;;5112293;28;20028;-79
2023/07/01 02:20:44;;;;;;;3.50;1.15;;;20.20;75.10;;;;;;5113216;28;20054;-78
2023/07/01 02:23:09;;;;;;;4.43;0.95;;;20.20;75.20;;;;;;5113480;28;20028;-78
2023/07/01 02:25:35;;;;;;;4.22;1.00;;;20.10;75.70;;;;;;5113419;28;20028;-78
2023/07/01 02:28:01;;;;;;;5.70;1.17;;;20.10;76.50;;;;;;5113773;28;20460;-77
2023/07/01 02:30:26;;;;;;;4.95;1.58;;;20.10;76.60;;;;;;5113635;28;20031;-78
2023/07/01 02:32:52;;;;;;;5.55;0.90;;;20.00;77.70;;;;;;5113611;28;20460;-78
2023/07/01 02:35:18;;;;;;;7.00;1.10;;;20.00;77.60;;;;;;5113088;28;20428;-78
2023/07/01 02:37:43;;;;;;;3.47;0.98;;;19.90;79.40;;;;;;5113665;28;20475;-78
2023/07/01 02:40:09;;;;;;;5.45;0.93;;;19.80;80.60;;;;;;5113178;28;20343;-78
2023/07/01 02:42:35;;;;;;;3.38;0.95;;;19.80;81.80;;;;;;5113651;28;20044;-78
2023/07/01 02:45:00;;;;;;;4.43;1.00;;;19.70;81.60;;;;;;5113589;28;20495;-78
2023/07/01 02:47:26;;;;;;;3.88;1.00;;;19.70;83.00;;;;;;5112986;28;20041;-78
2023/07/01 02:49:52;;;;;;;4.47;1.00;;;19.60;83.50;;;;;;5113083;28;20081;-77
2023/07/01 02:52:17;;;;;;;4.55;1.20;;;19.60;84.50;;;;;;5113723;28;20107;-78
2023/07/01 02:54:43;;;;;;;3.28;0.93;;;19.50;83.60;;;;;;5113364;28;20377;-77
2023/07/01 02:57:10;;;;;;;2.35;0.85;;;19.50;84.10;;;;;;5094939;28;20102;-78
2023/07/01 02:59:37;;;;;;;4.25;1.15;;;19.40;84.40;;;;;;5113132;28;20051;-78
2023/07/01 03:02:06;;;;;;;1.98;1.05;;;19.40;84.30;;;;;;5111786;28;20093;-79
2023/07/01 03:04:35;;;;;;;3.85;1.15;;;19.40;84.50;;;;;;5113484;28;20063;-78
2023/07/01 03:07:01;;;;;;;3.20;0.88;;;19.30;84.40;;;;;;5112935;28;20081;-78
2023/07/01 03:09:27;;;;;;;4.03;0.80;;;19.30;84.70;;;;;;5113026;28;20144;-78
2023/07/01 03:11:53;;;;;;;3.28;1.42;;;19.40;84.70;;;;;;5113575;28;20050;-78
2023/07/01 03:14:20;;;;;;;2.88;0.82;;;19.40;84.80;;;;;;5113062;28;20400;-78
2023/07/01 03:16:46;;;;;;;2.65;0.68;;;19.40;85.10;;;;;;5113271;28;20024;-78
2023/07/01 03:19:12;;;;;;;5.07;1.98;;;19.30;85.80;;;;;;5113251;28;20034;-78
2023/07/01 03:21:38;;;;;;;3.03;0.98;;;19.30;86.30;;;;;;5112402;28;20536;-78
2023/07/01 03:24:04;;;;;;;3.50;0.70;;;19.40;87.00;;;;;;5113023;28;20042;-78
2023/07/01 03:26:30;;;;;;;3.08;0.85;;;19.30;87.20;;;;;;5111908;28;20410;-77
2023/07/01 03:28:55;;;;;;;3.13;0.90;;;19.40;87.30;;;;;;5113120;28;20064;-77
2023/07/01 03:31:21;;;;;;;2.72;0.65;;;19.30;87.90;;;;;;5112868;28;20131;-77
2023/07/01 03:33:47;;;;;;;5.18;1.38;;;19.30;88.00;;;;;;5111759;28;20046;-78
2023/07/01 03:36:13;;;;;;;2.92;0.85;;;19.30;88.60;;;;;;5112796;28;20463;-78
2023/07/01 03:38:38;;;;;;;4.00;0.70;;;19.30;89.30;;;;;;5113055;28;20043;-78
2023/07/01 03:41:06;;;;;;;5.45;1.10;;;19.30;89.60;;;;;;5112336;28;20059;-78
2023/07/01 03:43:32;;;;;;;2.55;1.00;;;19.30;90.00;;;;;;5111486;28;20035;-78
2023/07/01 03:45:58;;;;;;;8.13;0.80;;;19.30;90.20;;;;;;5111767;28;20039;-78
2023/07/01 03:48:24;;;;;;;3.40;0.80;;;19.40;90.10;;;;;;5114579;28;20028;-77
2023/07/01 03:50:49;;;;;;;3.50;1.65;;;19.40;90.20;;;;;;5114801;28;20040;-78
2023/07/01 03:53:15;;;;;;;2.22;0.98;;;19.30;90.40;;;;;;5116581;28;20410;-78
2023/07/01 03:55:41;;;;;;;2.05;0.90;;;19.30;90.50;;;;;;5116153;28;20482;-77
2023/07/01 03:58:06;;;;;;;3.42;0.93;;;19.30;90.50;;;;;;5114919;28;20024;-77
2023/07/01 04:00:32;;;;;;;3.80;1.00;;;19.20;90.60;;;;;;5116103;28;20391;-77
2023/07/01 04:03:05;;;;;;;5.70;1.20;;;19.20;90.70;;;;;;5116353;28;20043;-78
2023/07/01 04:05:34;;;;;;;2.97;0.82;;;19.20;90.80;;;;;;5115235;28;20027;-78
2023/07/01 04:08:00;;;;;;;3.67;0.95;;;19.20;90.80;;;;;;5115955;28;20032;-77
2023/07/01 04:10:26;;;;;;;2.80;1.05;;;19.20;91.10;;;;;;5115988;28;20051;-77
2023/07/01 04:12:52;;;;;;;4.60;1.02;;;19.20;91.00;;;;;;5097661;28;20042;-77
2023/07/01 04:15:17;;;;;;;3.55;0.90;;;19.20;91.10;;;;;;5116082;28;20028;-77
2023/07/01 04:17:48;;;;;;;2.92;0.98;;;19.20;91.20;;;;;;5116371;28;20028;-77
2023/07/01 04:20:14;;;;;;;3.53;1.00;;;19.20;91.30;;;;;;5115645;28;20027;-78
2023/07/01 04:22:41;;;;;;;6.43;1.20;;;19.10;91.40;;;;;;5115709;28;20028;-77
2023/07/01 04:25:08;;;;;;;1.85;0.70;;;19.10;91.50;;;;;;5115856;28;20028;-77
2023/07/01 04:27:34;;;;;;;4.28;0.82;;;19.10;91.80;;;;;;5115988;28;20324;-78
2023/07/01 04:30:01;;;;;;;3.22;0.80;;;19.00;91.80;;;;;;5115881;28;20057;-77
2023/07/01 04:32:28;;;;;;;1.52;0.70;;;19.10;92.00;;;;;;5115579;28;20069;-77
2023/07/01 04:34:54;;;;;;;6.53;1.17;;;19.10;92.20;;;;;;5115559;28;20058;-77
2023/07/01 04:37:19;;;;;;;3.47;1.00;;;19.10;92.30;;;;;;5115620;28;20032;-78
2023/07/01 04:39:45;;;;;;;2.35;0.63;;;19.10;92.40;;;;;;5114630;28;20410;-77
2023/07/01 04:42:11;;;;;;;2.95;0.80;;;19.10;92.60;;;;;;5096867;28;20079;-78
2023/07/01 04:44:37;;;;;;;1.58;0.90;;;19.10;92.90;;;;;;5115597;28;20110;-78
2023/07/01 04:47:02;;;;;;;3.65;1.00;;;19.10;92.90;;;;;;5115023;28;20441;-77
2023/07/01 04:49:28;;;;;;;1.52;0.90;;;19.10;93.10;;;;;;5115851;28;20043;-78
2023/07/01 04:51:54;;;;;;;4.03;1.25;;;19.00;93.60;;;;;;5113831;28;20031;-78
2023/07/01 04:54:19;;;;;;;2.40;0.90;;;19.00;93.90;;;;;;5114016;28;20491;-77
2023/07/01 04:56:45;;;;;;;3.47;0.60;;;18.90;94.30;;;;;;5115363;28;20046;-78
2023/07/01 04:59:10;;;;;;;1.75;0.80;;;18.90;94.40;;;;;;5115268;28;20052;-77
2023/07/01 05:01:36;;;;;;;4.20;1.17;;;18.90;94.90;;;;;;5114724;28;20036;-78
2023/07/01 05:04:02;;;;;;;3.78;1.05;;;18.90;95.00;;;;;;5115112;28;20059;-77
2023/07/01 05:06:28;;;;;;;5.75;0.98;;;18.90;95.30;;;;;;5114024;28;20031;-77
2023/07/01 05:08:53;;;;;;;2.22;0.90;;;18.90;95.40;;;;;;5096858;28;20386;-77
2023/07/01 05:11:19;;;;;;;1.83;0.95;;;18.80;95.50;;;;;;5113567;28;20042;-78
2023/07/01 05:13:46;;;;;;;2.05;0.90;;;18.80;95.70;;;;;;5114821;28;20027;-77
2023/07/01 05:16:11;;;;;;;2.20;0.80;;;18.90;95.80;;;;;;5113938;28;20070;-77
2023/07/01 05:18:37;;;;;;;2.00;0.93;;;18.80;95.90;;;;;;5114942;28;20031;-77
2023/07/01 05:21:03;;;;;;;4.32;1.00;;;18.80;96.10;;;;;;5113393;28;20035;-77
2023/07/01 05:23:29;;;;;;;2.72;0.70;;;18.80;96.20;;;;;;5114545;28;20328;-77
2023/07/01 05:25:54;;;;;;;2.72;0.60;;;18.80;96.30;;;;;;5114829;28;20028;-77
2023/07/01 05:28:20;;;;;;;2.08;0.95;;;18.80;96.40;;;;;;5096499;28;20054;-77
2023/07/01 05:30:46;;;;;;;1.85;0.80;;;18.80;96.50;;;;;;5114700;28;20027;-77
2023/07/01 05:33:12;;;;;;;1.20;0.60;;;18.80;96.50;;;;;;5114163;28;20040;-77
2023/07/01 05:35:38;;;;;;;1.63;1.00;;;18.80;96.70;;;;;;5114644;28;20096;-77
2023/07/01 05:38:08;;;;;;;2.08;0.90;;;18.80;96.70;;;;;;5114393;28;20051;-77
2023/07/01 05:40:33;;;;;;;1.77;0.68;;;18.70;96.90;;;;;;5114127;28;20142;-76
2023/07/01 05:42:59;;;;;;;1.15;0.70;;;18.70;97.10;;;;;;5113126;28;20126;-77
2023/07/01 05:45:24;;;;;;;2.50;0.80;;;18.60;97.30;;;;;;5113025;28;20423;-77
2023/07/01 05:47:50;;;;;;;2.22;1.17;;;18.70;97.30;;;;;;5114189;28;20490;-77
2023/07/01 05:50:16;;;;;;;1.52;0.80;;;18.60;97.50;;;;;;5113628;28;20107;-77
2023/07/01 05:52:41;;;;;;;1.83;0.70;;;18.60;97.60;;;;;;5112939;28;20119;-76
2023/07/01 05:55:07;;;;;;;1.85;1.02;;;18.70;97.60;;;;;;5112867;28;20356;-76
2023/07/01 05:57:33;;;;;;;0.90;0.60;;;18.70;97.50;;;;;;5113720;28;20035;-77
2023/07/01 05:59:59;;;;;;;1.50;0.90;;;18.70;97.70;;;;;;5113111;28;20037;-77
2023/07/01 06:02:24;;;;;;;1.00;0.70;;;18.70;97.80;;;;;;5113837;28;20368;-76
2023/07/01 06:04:50;;;;;;;3.78;1.00;;;18.60;97.90;;;;;;5112780;28;20024;-76
2023/07/01 06:07:16;;;;;;;1.75;0.60;;;18.60;98.00;;;;;;5113573;28;20037;-76
2023/07/01 06:09:47;;;;;;;2.53;1.02;;;18.60;98.10;;;;;;5113992;28;20028;-76
2023/07/01 06:12:13;;;;;;;1.30;0.80;;;18.60;98.10;;;;;;5113220;28;20039;-77
2023/07/01 06:14:39;;;;;;;2.03;0.75;;;18.60;98.40;;;;;;5112342;28;20031;-76
2023/07/01 06:17:05;;;;;;;4.72;0.90;;;18.70;98.40;;;;;;5112530;28;20488;-77
2023/07/01 06:19:31;;;;;;;1.50;0.60;;;18.70;98.60;;;;;;5112862;28;20038;-77
2023/07/01 06:21:57;;;;;;;2.45;0.60;;;18.70;98.50;;;;;;5113217;28;20031;-77
2023/07/01 06:24:22;;;;;;;1.35;0.80;;;18.70;98.50;;;;;;5113503;28;20035;-77
2023/07/01 06:26:48;;;;;;;1.92;1.00;;;18.70;98.40;;;;;;5113349;28;20057;-77
2023/07/01 06:29:14;;;;;;;2.03;0.63;;;18.80;98.50;;;;;;5113407;28;20032;-76
2023/07/01 06:31:39;;;;;;;1.38;0.60;;;18.70;98.40;;;;;;5113674;28;20035;-77
2023/07/01 06:34:12;;;;;;;2.17;0.88;;;18.80;98.40;;;;;;5113814;28;20063;-77
2023/07/01 06:36:37;;;;;;;1.00;0.70;;;18.80;98.60;;;;;;5113359;28;20035;-77
2023/07/01 06:39:04;;;;;;;0.98;0.88;;;18.80;98.60;;;;;;5095340;28;20391;-77
2023/07/01 06:41:29;;;;;;;1.20;0.70;;;18.80;98.60;;;;;;5113089;28;20150;-76
2023/07/01 06:43:55;;;;;;;1.42;0.60;;;18.80;98.70;;;;;;5113643;28;20056;-77
2023/07/01 06:46:21;;;;;;;1.23;0.65;;;18.70;98.70;;;;;;5113065;28;20110;-77
2023/07/01 06:48:46;;;;;;;1.83;0.68;;;18.80;98.80;;;;;;5113125;28;20420;-77
2023/07/01 06:51:13;;;;;;;0.90;0.82;;;18.80;98.80;;;;;;5111657;28;20027;-77
2023/07/01 06:53:39;;;;;;;1.85;0.65;;;18.80;98.80;;;;;;5113199;28;20099;-77
2023/07/01 06:56:05;;;;;;;2.03;0.70;;;18.80;98.90;;;;;;5113391;28;20055;-77
2023/07/01 06:58:31;;;;;;;1.70;1.00;;;18.80;98.90;;;;;;5113208;28;20062;-76
2023/07/01 07:00:57;;;;;;;1.75;0.52;;;18.80;99.10;;;;;;5113361;28;20467;-77
2023/07/01 07:03:22;;;;;;;1.23;0.55;;;18.80;99.10;;;;;;5113275;28;20115;-77
2023/07/01 07:05:48;;;;;;;2.50;0.50;;;18.80;99.10;;;;;;5111991;28;20331;-77
2023/07/01 07:08:14;;;;;;;2.90;0.70;;;18.80;99.10;;;;;;5113258;28;20122;-77
2023/07/01 07:10:39;;;;;;;2.25;0.60;;;18.90;99.20;;;;;;5113288;28;20044;-77
2023/07/01 07:13:05;;;;;;;1.88;0.70;;;18.90;99.40;;;;;;5113207;28;20471;-76
2023/07/01 07:15:31;;;;;;;1.23;0.60;;;18.90;99.40;;;;;;5111921;28;20035;-77
2023/07/01 07:17:56;;;;;;;0.93;0.50;;;18.90;99.40;;;;;;5112804;28;20027;-78
2023/07/01 07:20:22;;;;;;;1.55;0.80;;;18.90;99.50;;;;;;5112727;28;20058;-77
2023/07/01 07:22:48;;;;;;;1.30;0.80;;;18.90;99.50;;;;;;5112870;28;20514;-77
2023/07/01 07:25:17;;;;;;;1.95;0.63;;;18.90;99.40;;;;;;5116595;28;20106;-79
2023/07/01 07:27:46;;;;;;;2.10;0.70;;;18.90;99.40;;;;;;5116758;28;20024;-77
2023/07/01 07:30:13;;;;;;;2.25;1.42;;;18.90;99.60;;;;;;5116667;28;20024;-76
2023/07/01 07:32:39;;;;;;;0.88;0.55;;;18.90;99.60;;;;;;5117064;28;20063;-77
2023/07/01 07:35:05;;;;;;;1.00;0.60;;;18.90;99.90;;;;;;5116920;28;20134;-77
2023/07/01 07:37:31;;;;;;;0.70;0.50;;;18.90;99.80;;;;;;5115207;28;20036;-76
2023/07/01 07:39:59;;;;;;;1.33;0.60;;;18.90;99.80;;;;;;5116689;28;20038;-77
2023/07/01 07:42:25;;;;;;;1.33;0.70;;;18.90;99.80;;;;;;5116890;28;20064;-77
2023/07/01 07:44:51;;;;;;;1.35;0.57;;;19.00;99.90;;;;;;5116620;28;20039;-77
2023/07/01 07:47:16;;;;;;;1.42;0.57;;;19.00;99.70;;;;;;5116631;28;20028;-77
2023/07/01 07:49:42;;;;;;;1.10;0.63;;;19.00;99.80;;;;;;5116202;28;20118;-77
2023/07/01 07:52:07;;;;;;;2.53;0.70;;;19.00;99.80;;;;;;5116730;28;20478;-77
2023/07/01 07:54:33;;;;;;;1.00;0.40;;;19.00;99.80;;;;;;5116439;28;20061;-77
2023/07/01 07:56:59;;;;;;;1.67;0.60;;;19.00;99.90;;;;;;5098238;28;20471;-77
2023/07/01 07:59:28;;;;;;;0.90;0.50;;;19.00;99.90;;;;;;5116108;28;20421;-77
2023/07/01 08:01:57;;;;;;;2.00;0.50;;;19.00;99.90;;;;;;5115206;28;20111;-77
2023/07/01 08:04:23;;;;;;;1.00;0.30;;;19.00;99.90;;;;;;5115234;28;20084;-77
2023/07/01 08:06:48;;;;;;;0.88;0.60;;;18.90;99.90;;;;;;5116115;28;20425;-77
2023/07/01 08:09:14;;;;;;;1.35;0.47;;;18.90;99.90;;;;;;5116270;28;20072;-77
2023/07/01 08:11:41;;;;;;;0.75;0.60;;;18.90;99.90;;;;;;5116078;28;20051;-77
2023/07/01 08:14:06;;;;;;;1.40;0.75;;;18.90;99.90;;;;;;5116268;27;20050;-77
2023/07/01 08:16:32;;;;;;;1.42;0.65;;;18.90;99.90;;;;;;5116375;28;20059;-76
2023/07/01 08:18:58;;;;;;;2.45;0.70;;;19.00;99.90;;;;;;5116135;28;20061;-75
2023/07/01 08:21:24;;;;;;;1.80;0.70;;;18.90;99.90;;;;;;5115548;28;20040;-77
2023/07/01 08:23:49;;;;;;;2.22;0.73;;;19.00;99.90;;;;;;5116067;28;20117;-77
2023/07/01 08:26:15;;;;;;;0.90;0.60;;;19.00;99.90;;;;;;5114601;28;20100;-76
2023/07/01 08:28:40;;;;;;;0.88;0.60;;;19.00;99.90;;;;;;5116108;28;20426;-77
2023/07/01 08:31:06;;;;;;;2.25;0.60;;;19.00;99.90;;;;;;5114146;28;20042;-78
2023/07/01 08:33:32;;;;;;;1.15;0.68;;;19.00;99.90;;;;;;5115459;28;20425;-77
2023/07/01 08:35:58;;;;;;;1.80;0.43;;;19.10;99.90;;;;;;5115689;28;20029;-77
2023/07/01 08:38:24;;;;;;;1.90;0.50;;;19.10;99.90;;;;;;5116008;28;20050;-77
2023/07/01 08:40:52;;;;;;;2.22;0.68;;;19.10;99.90;;;;;;5114908;28;20058;-76
2023/07/01 08:43:20;;;;;;;1.15;0.50;;;19.10;99.90;;;;;;5115606;28;20055;-77
2023/07/01 08:45:50;;;;;;;0.90;0.65;;;19.10;99.90;;;;;;5115454;28;20028;-77
2023/07/01 08:48:21;;;;;;;0.63;0.43;;;19.10;99.90;;;;;;5114000;28;20032;-77
2023/07/01 08:51:00;;;;;;;0.60;0.50;;;19.20;99.90;;;;;;5115162;28;20031;-76
2023/07/01 08:53:26;;;;;;;0.98;0.70;;;19.20;99.90;;;;;;5115316;28;20037;-77
2023/07/01 08:55:54;;;;;;;0.68;0.40;;;19.20;99.90;;;;;;5115576;28;20047;-77
2023/07/01 08:58:20;;;;;;;2.35;0.60;;;19.20;99.90;;;;;;5115503;28;20035;-77
2023/07/01 09:00:45;;;;;;;0.52;0.30;;;19.20;99.90;;;;;;5115044;28;20429;-77
2023/07/01 09:03:12;;;;;;;1.10;0.50;;;19.10;99.90;;;;;;5114124;28;20510;-76
2023/07/01 09:05:37;;;;;;;1.02;0.50;;;19.10;99.90;;;;;;5114966;28;20236;-76
2023/07/01 09:08:03;;;;;;;0.70;0.50;;;19.20;99.90;;;;;;5114941;28;20209;-76
2023/07/01 09:10:29;;;;;;;0.90;0.50;;;19.20;99.90;;;;;;5113710;28;20032;-76
2023/07/01 09:12:55;;;;;;;0.75;0.40;;;19.20;99.90;;;;;;5113612;28;20561;-76
2023/07/01 09:15:20;;;;;;;1.77;0.60;;;19.30;99.90;;;;;;5096345;28;20028;-75
2023/07/01 09:17:46;;;;;;;0.73;0.57;;;19.30;99.90;;;;;;5113821;28;20024;-76
2023/07/01 09:20:13;;;;;;;0.70;0.60;;;19.30;99.90;;;;;;5114526;28;20063;-76
2023/07/01 09:22:42;;;;;;;2.58;0.80;;;19.30;99.90;;;;;;5114985;28;20422;-75
2023/07/01 09:25:08;;;;;;;1.23;0.70;;;19.20;99.90;;;;;;5114714;28;20032;-76
2023/07/01 09:27:41;;;;;;;2.13;0.70;;;19.30;99.90;;;;;;5114814;28;20500;-77
2023/07/01 09:30:27;;;;;;;1.33;0.70;;;19.30;99.90;;;;;;5113609;28;20032;-77
2023/07/01 09:33:13;;;;;;;1.00;0.70;;;19.30;99.90;;;;;;5114747;28;20031;-78
2023/07/01 09:35:45;;;;;;;0.85;0.75;;;19.30;99.90;;;;;;5115143;28;20026;-76
2023/07/01 09:38:11;;;;;;;0.65;0.50;;;19.30;99.90;;;;;;5114550;28;20036;-77
2023/07/01 09:40:37;;;;;;;0.95;0.93;;;19.20;99.90;;;;;;5114354;28;20136;-77
2023/07/01 09:43:02;;;;;;;2.80;1.05;;;19.20;99.90;;;;;;5114099;28;20475;-76
2023/07/01 09:45:28;;;;;;;1.00;0.90;;;19.20;99.90;;;;;;5113806;28;20031;-77
2023/07/01 09:47:54;;;;;;;2.40;1.10;;;19.20;99.90;;;;;;5113189;28;20360;-77
2023/07/01 09:50:29;;;;;;;1.27;1.10;;;19.20;99.90;;;;;;5112799;28;20027;-76
2023/07/01 09:52:55;;;;;;;1.27;1.17;;;19.20;99.90;;;;;;5114252;28;20038;-77
2023/07/01 09:55:24;;;;;;;2.65;1.40;;;19.20;99.90;;;;;;5112804;28;20058;-77
2023/07/01 09:57:50;;;;;;;1.90;1.20;;;19.20;99.90;;;;;;5114306;28;20028;-76
2023/07/01 10:00:16;;;;;;;2.25;1.55;;;19.20;99.90;;;;;;5114303;28;20073;-77
2023/07/01 10:02:46;;;;;;;1.40;1.30;;;19.20;99.90;;;;;;5112911;28;20130;-77
2023/07/01 10:05:12;;;;;;;1.95;1.60;;;19.30;99.90;;;;;;5114509;27;20023;-77
2023/07/01 10:07:42;;;;;;;3.45;1.73;;;19.30;99.90;;;;;;5113966;28;20024;-77
2023/07/01 10:10:12;;;;;;;1.67;1.20;;;19.30;99.90;;;;;;5096174;28;20427;-79
2023/07/01 10:12:40;;;;;;;2.08;1.98;;;19.30;99.90;;;;;;5113999;28;20116;-79
2023/07/01 10:15:09;;;;;;;1.88;0.90;;;19.30;99.90;;;;;;5114116;28;20020;-79
2023/07/01 10:18:18;;;;;;;2.25;1.70;;;19.30;99.90;;;;;;5112894;28;20031;-78
2023/07/01 10:20:43;;;;;;;1.85;1.40;;;19.30;99.90;;;;;;5105795;28;20040;-78
2023/07/01 10:23:10;;;;;;;2.55;1.42;;;19.30;99.90;;;;;;5112871;28;20031;-78
2023/07/01 10:25:37;;;;;;;1.60;1.50;;;19.40;99.90;;;;;;5113900;28;20035;-78
2023/07/01 10:28:04;;;;;;;2.40;2.20;;;19.40;99.90;;;;;;5113924;28;20042;-78
2023/07/01 10:30:42;;;;;;;1.45;1.35;;;19.40;99.90;;;;;;5113514;28;20032;-78
2023/07/01 10:33:30;;;;;;;2.38;2.17;;;19.40;99.90;;;;;;5113396;28;20479;-77
2023/07/01 10:36:09;;;;;;;1.50;1.40;;;19.40;99.90;;;;;;5113390;28;20504;-78
2023/07/01 10:38:37;;;;;;;2.00;1.90;;;19.40;99.90;;;;;;5113399;28;20043;-77
2023/07/01 10:41:03;;;;;;;1.60;1.50;;;19.50;99.90;;;;;;5113388;28;20081;-77
2023/07/01 10:43:32;;;;;;;4.30;2.03;;;19.50;99.90;;;;;;5113433;28;20043;-78
2023/07/01 10:46:04;;;;;;;3.28;2.08;;;19.50;99.90;;;;;;5113446;28;20035;-77
2023/07/01 10:48:30;;;;;;;4.38;2.08;;;19.50;99.90;;;;;;5113643;28;20032;-78
2023/07/01 10:51:04;;;;;;;1.77;1.50;;;19.50;99.90;;;;;;5112622;28;20482;-77
2023/07/01 10:53:30;;;;;;;2.85;2.25;;;19.50;99.90;;;;;;5113616;28;20027;-77
2023/07/01 10:56:11;;;;;;;2.75;2.00;;;19.50;99.90;;;;;;5113094;28;20100;-78
2023/07/01 10:58:37;;;;;;;2.50;2.30;;;19.50;99.90;;;;;;5117307;28;20490;-78
2023/07/01 11:01:03;;;;;;;2.70;2.25;;;19.60;99.90;;;;;;5117590;28;20028;-78
2023/07/01 11:03:35;;;;;;;3.42;2.35;;;19.60;99.90;;;;;;5117562;28;20416;-78
2023/07/01 11:06:02;;;;;;;2.57;2.13;;;19.60;99.90;;;;;;5117106;28;20028;-78
2023/07/01 11:08:29;;;;;;;2.55;2.30;;;19.50;99.90;;;;;;5117356;28;20260;-78
2023/07/01 11:10:55;;;;;;;4.10;2.80;;;19.60;99.90;;;;;;5117072;28;20056;-79
2023/07/01 11:13:22;;;;;;;2.80;2.60;;;19.60;99.90;;;;;;5117413;28;20060;-78
2023/07/01 11:16:07;;;;;;;4.28;2.60;;;19.60;99.90;;;;;;5117350;28;20058;-78
2023/07/01 11:18:48;;;;;;;3.30;3.03;;;19.70;99.90;;;;;;5115951;28;20495;-77
2023/07/01 11:21:18;;;;;;;3.38;3.08;;;19.70;99.90;;;;;;5116513;28;20467;-78
2023/07/01 11:24:00;;;;;;;3.65;3.35;;;19.70;99.90;;;;;;5115445;28;20035;-77
2023/07/01 11:26:30;;;;;;;2.70;2.50;;;19.70;99.90;;;;;;5117039;28;20372;-78
2023/07/01 11:28:56;;;;;;;3.42;3.08;;;19.80;99.90;;;;;;5116925;28;20432;-78
2023/07/01 11:31:24;;;;;;;3.55;3.22;;;19.70;99.90;;;;;;5115410;28;20043;-77
2023/07/01 11:33:54;;;;;;;3.17;2.88;;;19.70;99.90;;;;;;5117015;28;20029;-78
2023/07/01 11:36:42;;;;;;;3.17;2.88;;;19.80;99.90;;;;;;5116648;28;20031;-78
2023/07/01 11:39:13;;;;;;;5.82;3.70;;;19.90;99.90;;;;;;5117592;28;20059;-78
2023/07/01 11:41:41;;;;;;;4.75;3.17;;;20.00;99.90;;;;;;5116560;28;20047;-78
2023/07/01 11:44:09;;;;;;;3.70;3.40;;;20.10;99.90;;;;;;5117190;28;20023;-77
2023/07/01 11:46:40;;;;;;;5.28;3.20;;;20.20;99.90;;;;;;5116745;28;20133;-78
2023/07/01 11:49:15;;;;;;;3.92;2.63;;;20.20;99.90;;;;;;5116850;28;20024;-78
2023/07/01 11:51:46;;;;;;;3.83;3.45;;;20.20;99.90;;;;;;5116607;28;20024;-78
2023/07/01 11:54:13;;;;;;;3.85;3.55;;;20.20;99.90;;;;;;5116596;28;20208;-78
2023/07/01 11:56:39;;;;;;;3.67;3.33;;;20.20;99.90;;;;;;5116114;28;20420;-78
2023/07/01 11:59:04;;;;;;;5.22;3.78;;;20.20;99.90;;;;;;5116274;28;20084;-77
2023/07/01 12:01:30;;;;;;;6.25;4.00;;;20.20;99.90;;;;;;5116320;28;20118;-77
2023/07/01 12:03:56;;;;;;;3.80;3.33;;;20.20;99.90;;;;;;5116029;28;20028;-77
2023/07/01 12:06:24;;;;;;;5.68;4.20;;;20.20;99.90;;;;;;5115977;28;20030;-78
2023/07/01 12:08:57;;;;;;;5.03;4.57;;;20.20;99.90;;;;;;5115454;28;20087;-78
2023/07/01 12:11:24;;;;;;;4.15;3.75;;;20.20;99.90;;;;;;5116093;28;20028;-78
2023/07/01 12:13:51;;;;;;;4.57;4.18;;;20.30;99.90;;;;;;5115539;28;20031;-77
2023/07/01 12:16:18;;;;;;;4.70;4.20;;;20.50;99.90;;;;;;5115960;28;20028;-77
2023/07/01 12:18:44;;;;;;;4.22;3.92;;;20.50;99.90;;;;;;5116125;28;20027;-78
2023/07/01 12:21:09;;;;;;;5.95;3.67;;;20.50;99.90;;;;;;5115477;28;20036;-76
2023/07/01 12:23:42;;;;;;;4.50;3.90;;;20.50;99.90;;;;;;5116167;28;20517;-76
2023/07/01 12:26:12;;;;;;;4.28;3.42;;;20.50;99.90;;;;;;5116034;28;20039;-76
2023/07/01 12:28:39;;;;;;;3.30;2.97;;;20.40;99.90;;;;;;5116006;28;20028;-76
2023/07/01 12:31:06;;;;;;;2.58;2.38;;;20.30;99.90;;;;;;5114890;28;20031;-75
2023/07/01 12:33:32;;;;;;;2.55;2.33;;;20.20;99.90;;;;;;5115748;28;20024;-76
2023/07/01 12:35:59;;;;;;;3.97;2.55;;;20.20;99.90;;;;;;5114513;28;20059;-76
2023/07/01 12:38:26;;;;;;;2.85;2.65;;;20.10;99.90;;;;;;5115702;28;20042;-76
2023/07/01 12:40:54;;;;;;;2.92;2.53;;;20.20;99.90;;;;;;5115817;28;20039;-76
2023/07/01 12:43:26;;;;;;;2.78;2.47;;;20.20;99.90;;;;;;5115932;28;20037;-77
2023/07/01 12:45:53;;;;;;;2.95;2.67;;;20.20;99.90;;;;;;5115973;28;20072;-76
2023/07/01 12:48:21;;;;;;;3.60;2.60;;;20.30;99.90;;;;;;5115804;28;20028;-76
2023/07/01 12:50:47;;;;;;;2.53;2.33;;;20.20;99.90;;;;;;5115000;27;20197;-77